Radiosonde details



Informationen :

Serial : D26002473
Type : Graw DFM
Frequency : 403.210MHz
Launchsite : Spokane
Nearest town : Newport, US (42.4km)

Altitude (Max) : 34099m at 2026-09-01 18:51:43
Speed (Max) : 102km/h at altitude 11495m

Average speed : 48km/h
Average ascent rate : 5m/s
Average descent rate : -8m/s
Ascent rate (Max) : 10.9m/s
Descent rate (Max): -24.9m/s

First frame :
WB7NNF at 2026-09-01 17:23:19 at altitude 5906m (OG: 5864m)
Last frame :
WB7NNF at 2026-09-01 19:44:43 at altitude 9590m (OG: 9548m)

Flighttime : 2h21m24s
Ascent time : 1h28m24s
Descent time : 53m0s
Uptime : -
Killtimer : -

Distance (Straight line distance): 95km

Distance (Route):


Frames : 365


Measurement :

Temperature : -41.5°C
Humidity : 0%
Pressure : 0hPa


Vertical profile (SkewT) :


Elevation profile :



Receiving stations :


Receiver Frames First received Last received
WB7NNF 365 2026-09-01 17:23:19 2026-09-01 19:44:43

Share per receiver :



All frames :


Receiver Date Latitude Longitude Direction Speed Altitude Climb Temperature Humidity Pressure Voltage Killtimer Uptime BKT XDATA
WB7NNF2026-09-01 19:44:4348.54726-117.1969912°75km/h9590m-3.6m/s-41.5°C0%0hPa0V00:00:0000:00:0000:00:00
WB7NNF2026-09-01 19:43:4848.53762-117.2015675km/h9765m-3.3m/s-42.9°C0%0hPa0V00:00:0000:00:0000:00:00
WB7NNF2026-09-01 19:43:2048.53274-117.2036675km/h9858m-3.0m/s-43.6°C0%0hPa0V00:00:0000:00:0000:00:00
WB7NNF2026-09-01 19:42:3548.52507-117.2068171km/h10001m-3.2m/s-44.7°C0%0hPa0V00:00:0000:00:0000:00:00
WB7NNF2026-09-01 19:41:4248.51563-117.2104412°84km/h10162m-3.2m/s-46.2°C0%0hPa0V00:00:0000:00:0000:00:00
WB7NNF2026-09-01 19:41:0348.50875-117.2126217°78km/h10290m-3.2m/s-47.2°C0%0hPa0V00:00:0000:00:0000:00:00
WB7NNF2026-09-01 19:40:4148.50455-117.2135469km/h10358m-3.5m/s-47.6°C0%0hPa0V00:00:0000:00:0000:00:00
WB7NNF2026-09-01 19:40:0248.49709-117.2153188km/h10488m-3.6m/s-48.8°C0%0hPa0V00:00:0000:00:0000:00:00
WB7NNF2026-09-01 19:38:1048.47383-117.21807358°91km/h10887m-3.9m/s-52.1°C0%0hPa0V00:00:0000:00:0000:00:00
WB7NNF2026-09-01 19:37:4248.46786-117.21869357°82km/h10989m-3.6m/s-52.7°C0%0hPa0V00:00:0000:00:0000:00:00
WB7NNF2026-09-01 19:37:1448.46204-117.21953358°89km/h11090m-3.7m/s-53.5°C0%0hPa0V00:00:0000:00:0000:00:00
WB7NNF2026-09-01 19:36:4648.45570-117.22052359°91km/h11195m-3.8m/s-54.0°C0%0hPa0V00:00:0000:00:0000:00:00
WB7NNF2026-09-01 19:36:1648.44840-117.2218082km/h11312m-3.6m/s-54.9°C0%0hPa0V00:00:0000:00:0000:00:00
WB7NNF2026-09-01 19:35:4848.44192-117.2231382km/h11414m-3.6m/s-55.4°C0%0hPa0V00:00:0000:00:0000:00:00
WB7NNF2026-09-01 19:35:2748.43708-117.22426100km/h11495m-3.5m/s-55.7°C0%0hPa0V00:00:0000:00:0000:00:00
WB7NNF2026-09-01 19:35:0548.43255-117.2247471km/h11573m-3.5m/s-56.0°C0%0hPa0V00:00:0000:00:0000:00:00
WB7NNF2026-09-01 19:34:4448.42804-117.2258999km/h11653m-3.7m/s-56.4°C0%0hPa0V00:00:0000:00:0000:00:00
WB7NNF2026-09-01 19:33:5648.41788-117.2271369km/h11831m-3.6m/s-57.4°C0%0hPa0V00:00:0000:00:0000:00:00
WB7NNF2026-09-01 19:33:2848.41217-117.22790361°66km/h11936m-3.6m/s-57.9°C0%0hPa0V00:00:0000:00:0000:00:00
WB7NNF2026-09-01 19:33:0148.40656-117.2283466km/h12037m-3.6m/s-58.3°C0%0hPa0V00:00:0000:00:0000:00:00
WB7NNF2026-09-01 19:32:3448.40111-117.22879359°66km/h12137m-3.8m/s-57.6°C0%0hPa0V00:00:0000:00:0000:00:00
WB7NNF2026-09-01 19:32:0648.39553-117.2296369km/h12240m-3.9m/s-56.7°C0%0hPa0V00:00:0000:00:0000:00:00
WB7NNF2026-09-01 19:31:4048.38985-117.23068360°71km/h12345m-4.0m/s-57.0°C0%0hPa0V00:00:0000:00:0000:00:00
WB7NNF2026-09-01 19:31:1948.38549-117.2316399km/h12430m-3.8m/s-57.2°C0%0hPa0V00:00:0000:00:0000:00:00
WB7NNF2026-09-01 19:30:5748.38112-117.2322712°68km/h12516m-3.7m/s-57.0°C0%0hPa0V00:00:0000:00:0000:00:00
WB7NNF2026-09-01 19:30:3648.37702-117.2335584km/h12605m-4.3m/s-56.4°C0%0hPa0V00:00:0000:00:0000:00:00
WB7NNF2026-09-01 19:30:1448.37342-117.2341821°64km/h12692m-3.9m/s-55.1°C0%0hPa0V00:00:0000:00:0000:00:00
WB7NNF2026-09-01 19:29:5348.36973-117.23492357°68km/h12780m-4.1m/s-54.7°C0%0hPa0V00:00:0000:00:0000:00:00
WB7NNF2026-09-01 19:29:3348.36605-117.2359922°82km/h12869m-4.2m/s-54.0°C0%0hPa0V00:00:0000:00:0000:00:00
WB7NNF2026-09-01 19:29:1248.36263-117.2369955km/h12952m-4.0m/s-53.1°C0%0hPa0V00:00:0000:00:0000:00:00
WB7NNF2026-09-01 19:28:5248.35944-117.2385831°75km/h13041m-4.3m/s-52.8°C0%0hPa0V00:00:0000:00:0000:00:00
WB7NNF2026-09-01 19:28:3148.35614-117.2402758km/h13124m-4.1m/s-52.9°C0%0hPa0V00:00:0000:00:0000:00:00
WB7NNF2026-09-01 19:28:1148.35316-117.2420524°77km/h13214m-4.3m/s-53.5°C0%0hPa0V00:00:0000:00:0000:00:00
WB7NNF2026-09-01 19:27:5048.35006-117.2431722°44km/h13306m-4.0m/s-53.7°C0%0hPa0V00:00:0000:00:0000:00:00
WB7NNF2026-09-01 19:27:2948.34710-117.2444311°78km/h13394m-4.4m/s-54.3°C0%0hPa0V00:00:0000:00:0000:00:00
WB7NNF2026-09-01 19:27:0948.34391-117.2452323°49km/h13484m-4.2m/s-54.1°C0%0hPa0V00:00:0000:00:0000:00:00
WB7NNF2026-09-01 19:26:4848.34061-117.2464582km/h13572m-4.4m/s-53.9°C0%0hPa0V00:00:0000:00:0000:00:00
WB7NNF2026-09-01 19:26:2848.33723-117.2478133°64km/h13664m-4.5m/s-53.5°C0%0hPa0V00:00:0000:00:0000:00:00
WB7NNF2026-09-01 19:26:0448.33325-117.2497319°55km/h13764m-4.4m/s-52.8°C0%0hPa0V00:00:0000:00:0000:00:00
WB7NNF2026-09-01 19:25:3948.32879-117.2514457km/h13872m-4.2m/s-52.1°C0%0hPa0V00:00:0000:00:0000:00:00
WB7NNF2026-09-01 19:25:1348.32396-117.2533927°58km/h13989m-4.0m/s-51.8°C0%0hPa0V00:00:0000:00:0000:00:00
WB7NNF2026-09-01 19:24:4748.31997-117.2559216°47km/h14100m-4.8m/s-51.0°C0%0hPa0V00:00:0000:00:0000:00:00
WB7NNF2026-09-01 19:24:2348.31639-117.2584253km/h14217m-4.9m/s-50.8°C0%0hPa0V00:00:0000:00:0000:00:00
WB7NNF2026-09-01 19:23:5948.31280-117.2607773km/h14334m-5.0m/s-51.4°C0%0hPa0V00:00:0000:00:0000:00:00
WB7NNF2026-09-01 19:23:3848.30980-117.2626242°57km/h14437m-5.0m/s-51.2°C0%0hPa0V00:00:0000:00:0000:00:00
WB7NNF2026-09-01 19:23:1648.30647-117.2646846km/h14555m-5.3m/s-51.5°C0%0hPa0V00:00:0000:00:0000:00:00
WB7NNF2026-09-01 19:22:5548.30400-117.2664029°71km/h14659m-5.0m/s-52.1°C0%0hPa0V00:00:0000:00:0000:00:00
WB7NNF2026-09-01 19:22:3548.30145-117.2676831°33km/h14767m-5.1m/s-52.2°C0%0hPa0V00:00:0000:00:0000:00:00
WB7NNF2026-09-01 19:22:1048.29842-117.2696422°33km/h14894m-4.8m/s-52.7°C0%0hPa0V00:00:0000:00:0000:00:00
WB7NNF2026-09-01 19:21:4648.29547-117.27154360°47km/h15010m-4.5m/s-53.2°C0%0hPa0V00:00:0000:00:0000:00:00
WB7NNF2026-09-01 19:21:2248.29258-117.27299349°42km/h15138m-5.2m/s-53.8°C0%0hPa0V00:00:0000:00:0000:00:00
WB7NNF2026-09-01 19:20:3348.28593-117.2760321°46km/h15383m-6.3m/s-53.8°C0%0hPa0V00:00:0000:00:0000:00:00
WB7NNF2026-09-01 19:20:0948.28256-117.2785919°71km/h15502m-5.1m/s-53.7°C0%0hPa0V00:00:0000:00:0000:00:00
WB7NNF2026-09-01 19:19:4048.27875-117.2826249°66km/h15646m-5.0m/s-53.5°C0%0hPa0V00:00:0000:00:0000:00:00
WB7NNF2026-09-01 19:19:1248.27511-117.2874439°60km/h15797m-4.7m/s-53.8°C0%0hPa0V00:00:0000:00:0000:00:00
WB7NNF2026-09-01 19:18:1748.26850-117.2932051°62km/h16106m-6.1m/s-53.2°C0%0hPa0V00:00:0000:00:0000:00:00
WB7NNF2026-09-01 19:17:5648.26626-117.2956827°57km/h16219m-5.4m/s-53.0°C0%0hPa0V00:00:0000:00:0000:00:00
WB7NNF2026-09-01 19:17:3648.26377-117.2979825°49km/h16338m-5.2m/s-53.4°C0%0hPa0V00:00:0000:00:0000:00:00
WB7NNF2026-09-01 19:17:1548.26167-117.3003024°47km/h16449m-4.7m/s-53.8°C0%0hPa0V00:00:0000:00:0000:00:00
WB7NNF2026-09-01 19:16:5048.25922-117.3034050°49km/h16592m-5.5m/s-53.6°C0%0hPa0V00:00:0000:00:0000:00:00
WB7NNF2026-09-01 19:16:2948.25716-117.3059831°38km/h16717m-8.6m/s-52.7°C0%0hPa0V00:00:0000:00:0000:00:00
WB7NNF2026-09-01 19:16:0648.25428-117.3087115°64km/h16873m-6.1m/s-52.6°C0%0hPa0V00:00:0000:00:0000:00:00
WB7NNF2026-09-01 19:15:4248.25165-117.3108731°60km/h17026m-6.6m/s-52.0°C0%0hPa0V00:00:0000:00:0000:00:00
WB7NNF2026-09-01 19:15:2048.25001-117.3119235°13km/h17159m-7.0m/s-52.0°C0%0hPa0V00:00:0000:00:0000:00:00
WB7NNF2026-09-01 19:14:5948.24836-117.31303357°33km/h17309m-6.1m/s-52.8°C0%0hPa0V00:00:0000:00:0000:00:00
WB7NNF2026-09-01 19:14:3348.24574-117.31403360°31km/h17479m-6.6m/s-53.1°C0%0hPa0V00:00:0000:00:0000:00:00
WB7NNF2026-09-01 19:14:1148.24324-117.3156744°57km/h17620m-6.9m/s-53.7°C0%0hPa0V00:00:0000:00:0000:00:00
WB7NNF2026-09-01 19:13:5048.24027-117.3179535°77km/h17761m-6.9m/s-53.8°C0%0hPa0V00:00:0000:00:0000:00:00
WB7NNF2026-09-01 19:13:2948.23817-117.3201526°60km/h17895m-6.7m/s-53.3°C0%0hPa0V00:00:0000:00:0000:00:00
WB7NNF2026-09-01 19:13:0948.23630-117.3227165°53km/h18033m-7.5m/s-53.2°C0%0hPa0V00:00:0000:00:0000:00:00
WB7NNF2026-09-01 19:12:4848.23501-117.3248040°47km/h18169m-6.6m/s-52.7°C0%0hPa0V00:00:0000:00:0000:00:00
WB7NNF2026-09-01 19:12:2848.23382-117.3268749°40km/h18310m-6.5m/s-52.3°C0%0hPa0V00:00:0000:00:0000:00:00
WB7NNF2026-09-01 19:12:0648.23275-117.3283459°24km/h18452m-6.7m/s-52.4°C0%0hPa0V00:00:0000:00:0000:00:00
WB7NNF2026-09-01 19:11:4548.23117-117.3294249km/h18598m-6.4m/s-53.1°C0%0hPa0V00:00:0000:00:0000:00:00
WB7NNF2026-09-01 19:11:2348.22860-117.3320362°42km/h18761m-6.9m/s-53.2°C0%0hPa0V00:00:0000:00:0000:00:00
WB7NNF2026-09-01 19:11:0248.22695-117.3346932°42km/h18903m-6.9m/s-52.6°C0%0hPa0V00:00:0000:00:0000:00:00
WB7NNF2026-09-01 19:10:3848.22573-117.33768355°7km/h19086m-7.2m/s-52.3°C0%0hPa0V00:00:0000:00:0000:00:00
WB7NNF2026-09-01 19:10:1248.22432-117.33877347°13km/h19273m-7.3m/s-52.6°C0%0hPa0V00:00:0000:00:0000:00:00
WB7NNF2026-09-01 19:09:4648.22215-117.3400718km/h19473m-7.2m/s-53.8°C0%0hPa0V00:00:0000:00:0000:00:00
WB7NNF2026-09-01 19:09:1948.21994-117.3425122°22km/h19681m-7.6m/s-52.3°C0%0hPa0V00:00:0000:00:0000:00:00
WB7NNF2026-09-01 19:08:5348.21864-117.34497351°26km/h19892m-7.6m/s-52.4°C0%0hPa0V00:00:0000:00:0000:00:00
WB7NNF2026-09-01 19:08:2948.21702-117.34666342°31km/h20099m-8.5m/s-53.1°C0%0hPa0V00:00:0000:00:0000:00:00
WB7NNF2026-09-01 19:08:0348.21551-117.34822347°31km/h20311m-8.4m/s-53.1°C0%0hPa0V00:00:0000:00:0000:00:00
WB7NNF2026-09-01 19:07:3948.21437-117.34975349°22km/h20515m-8.5m/s-52.9°C0%0hPa0V00:00:0000:00:0000:00:00
WB7NNF2026-09-01 19:07:1648.21344-117.35218156°2km/h20714m-8.0m/s-52.9°C0%0hPa0V00:00:0000:00:0000:00:00
WB7NNF2026-09-01 19:06:5248.21353-117.35428221°16km/h20924m-8.8m/s-52.1°C0%0hPa0V00:00:0000:00:0000:00:00
WB7NNF2026-09-01 19:06:3048.21419-117.35520216°29km/h21122m-8.9m/s-52.3°C0%0hPa0V00:00:0000:00:0000:00:00
WB7NNF2026-09-01 19:06:0748.21476-117.35525265°31km/h21332m-8.8m/s-52.4°C0%0hPa0V00:00:0000:00:0000:00:00
WB7NNF2026-09-01 19:05:4548.21458-117.35477263°33km/h21537m-9.8m/s-51.6°C0%0hPa0V00:00:0000:00:0000:00:00
WB7NNF2026-09-01 19:05:2148.21420-117.35445286°35km/h21763m-9.7m/s-50.8°C0%0hPa0V00:00:0000:00:0000:00:00
WB7NNF2026-09-01 19:05:0048.21400-117.35370277°44km/h21979m-10.2m/s-51.2°C0%0hPa0V00:00:0000:00:0000:00:00
WB7NNF2026-09-01 19:04:3648.21393-117.35288290°38km/h22212m-10.1m/s-51.7°C0%0hPa0V00:00:0000:00:0000:00:00
WB7NNF2026-09-01 19:04:1548.21305-117.35191317°58km/h22438m-10.0m/s-52.2°C0%0hPa0V00:00:0000:00:0000:00:00
WB7NNF2026-09-01 19:03:5348.21089-117.35116336°69km/h22666m-10.8m/s-52.9°C0%0hPa0V00:00:0000:00:0000:00:00
WB7NNF2026-09-01 19:03:3048.20862-117.35169349°53km/h22902m-10.2m/s-52.6°C0%0hPa0V00:00:0000:00:0000:00:00
WB7NNF2026-09-01 19:03:1048.20723-117.35273356°49km/h23136m-12.1m/s-52.0°C0%0hPa0V00:00:0000:00:0000:00:00
WB7NNF2026-09-01 19:02:4848.20592-117.3541846km/h23386m-12.5m/s-51.4°C0%0hPa0V00:00:0000:00:0000:00:00
WB7NNF2026-09-01 19:02:2748.20529-117.35541344°40km/h23627m-11.8m/s-51.2°C0%0hPa0V00:00:0000:00:0000:00:00
WB7NNF2026-09-01 19:02:0448.20459-117.3557744km/h23879m-11.7m/s-50.8°C0%0hPa0V00:00:0000:00:0000:00:00
WB7NNF2026-09-01 19:01:4248.20362-117.3574313°42km/h24139m-12.5m/s-50.1°C0%0hPa0V00:00:0000:00:0000:00:00
WB7NNF2026-09-01 19:01:2048.20339-117.35863340°29km/h24384m-11.6m/s-50.5°C0%0hPa0V00:00:0000:00:0000:00:00
WB7NNF2026-09-01 19:00:5948.20309-117.35904320°40km/h24634m-12.1m/s-50.7°C0%0hPa0V00:00:0000:00:0000:00:00
WB7NNF2026-09-01 19:00:3748.20262-117.35930330°31km/h24897m-12.5m/s-50.6°C0%0hPa0V00:00:0000:00:0000:00:00
WB7NNF2026-09-01 18:59:5648.20349-117.36087264°24km/h25422m-11.7m/s-48.3°C0%0hPa0V00:00:0000:00:0000:00:00
WB7NNF2026-09-01 18:59:3348.20500-117.36079282°33km/h25716m-13.1m/s-48.4°C0%0hPa0V00:00:0000:00:0000:00:00
WB7NNF2026-09-01 18:59:1148.20555-117.35964314°53km/h26000m-12.9m/s-49.5°C0%0hPa0V00:00:0000:00:0000:00:00
WB7NNF2026-09-01 18:58:5048.20469-117.35913348°57km/h26280m-13.8m/s-49.1°C0%0hPa0V00:00:0000:00:0000:00:00
WB7NNF2026-09-01 18:58:3048.20421-117.35991325°22km/h26563m-12.0m/s-49.4°C0%0hPa0V00:00:0000:00:0000:00:00
WB7NNF2026-09-01 18:58:0948.20382-117.36043341°13km/h26825m-15.8m/s-48.4°C0%0hPa0V00:00:0000:00:0000:00:00
WB7NNF2026-09-01 18:57:4948.20375-117.35951255°60km/h27162m-13.9m/s-48.1°C0%0hPa0V00:00:0000:00:0000:00:00
WB7NNF2026-09-01 18:57:2848.20451-117.35777324°42km/h27456m-13.6m/s-49.0°C0%0hPa0V00:00:0000:00:0000:00:00
WB7NNF2026-09-01 18:57:0848.20463-117.3560082°29km/h27765m-15.9m/s-49.3°C0%0hPa0V00:00:0000:00:0000:00:00
WB7NNF2026-09-01 18:56:4748.20401-117.35498233°31km/h28083m-16.4m/s-48.9°C0%0hPa0V00:00:0000:00:0000:00:00
WB7NNF2026-09-01 18:56:2548.20303-117.35549245°22km/h28432m-15.5m/s-47.8°C0%0hPa0V00:00:0000:00:0000:00:00
WB7NNF2026-09-01 18:56:0448.20219-117.35611293°33km/h28792m-17.2m/s-46.6°C0%0hPa0V00:00:0000:00:0000:00:00
WB7NNF2026-09-01 18:55:4248.20145-117.35757350°35km/h29154m-17.3m/s-45.7°C0%0hPa0V00:00:0000:00:0000:00:00
WB7NNF2026-09-01 18:55:2048.20103-117.3602440km/h29535m-19.0m/s-46.6°C0%0hPa0V00:00:0000:00:0000:00:00
WB7NNF2026-09-01 18:54:5748.20061-117.36193282°26km/h29964m-17.2m/s-43.4°C0%0hPa0V00:00:0000:00:0000:00:00
WB7NNF2026-09-01 18:54:3548.20025-117.36295316°31km/h30380m-18.7m/s-42.0°C0%0hPa0V00:00:0000:00:0000:00:00
WB7NNF2026-09-01 18:54:1248.20054-117.36389262°44km/h30811m-19.8m/s-41.8°C0%0hPa0V00:00:0000:00:0000:00:00
WB7NNF2026-09-01 18:53:5248.20082-117.36414336°40km/h31243m-22.0m/s-42.8°C0%0hPa0V00:00:0000:00:0000:00:00
WB7NNF2026-09-01 18:53:2748.20059-117.36545276°29km/h31750m-21.9m/s-43.9°C0%0hPa0V00:00:0000:00:0000:00:00
WB7NNF2026-09-01 18:53:0748.20012-117.36690351°47km/h32193m-20.9m/s-42.6°C0%0hPa0V00:00:0000:00:0000:00:00
WB7NNF2026-09-01 18:52:4648.20003-117.36773106°38km/h32607m-19.4m/s-41.9°C0%0hPa0V00:00:0000:00:0000:00:00
WB7NNF2026-09-01 18:52:2648.19911-117.36842193°26km/h33057m-24.9m/s-41.4°C0%0hPa0V00:00:0000:00:0000:00:00
WB7NNF2026-09-01 18:52:0548.19912-117.36977109°27km/h33607m-22.3m/s-39.0°C0%0hPa0V00:00:0000:00:0000:00:00
WB7NNF2026-09-01 18:51:4348.20007-117.37037171°37km/h34099m6.1m/s-39.7°C0%0hPa0V00:00:0000:00:0000:00:00
WB7NNF2026-09-01 18:51:2248.20145-117.37231162°69km/h33956m9.3m/s-39.7°C0%0hPa0V00:00:0000:00:0000:00:00
WB7NNF2026-09-01 18:50:4148.20295-117.3760237km/h33702m5.7m/s-39.2°C0%0hPa0V00:00:0000:00:0000:00:00
WB7NNF2026-09-01 18:50:2148.20332-117.3766092°49km/h33562m9.8m/s-39.9°C0%0hPa0V00:00:0000:00:0000:00:00
WB7NNF2026-09-01 18:50:0048.20288-117.37757275°33km/h33428m5.6m/s-40.6°C0%0hPa0V00:00:0000:00:0000:00:00
WB7NNF2026-09-01 18:49:3848.20232-117.37902341°51km/h33280m10.9m/s-41.5°C0%0hPa0V00:00:0000:00:0000:00:00
WB7NNF2026-09-01 18:49:1748.20208-117.37921123°44km/h33146m10.4m/s-41.6°C0%0hPa0V00:00:0000:00:0000:00:00
WB7NNF2026-09-01 18:48:5748.20133-117.38044314°42km/h33010m9.3m/s-42.2°C0%0hPa0V00:00:0000:00:0000:00:00
WB7NNF2026-09-01 18:48:3648.20068-117.3808769°51km/h32876m7.7m/s-41.9°C0%0hPa0V00:00:0000:00:0000:00:00
WB7NNF2026-09-01 18:48:1648.19995-117.38063191°46km/h32738m7.9m/s-41.9°C0%0hPa0V00:00:0000:00:0000:00:00
WB7NNF2026-09-01 18:47:5548.19935-117.38077270°47km/h32601m2.3m/s-42.4°C0%0hPa0V00:00:0000:00:0000:00:00
WB7NNF2026-09-01 18:47:3348.19868-117.3819111°42km/h32462m7.5m/s-42.3°C0%0hPa0V00:00:0000:00:0000:00:00
WB7NNF2026-09-01 18:47:1248.19823-117.38253152°37km/h32334m5.2m/s-42.5°C0%0hPa0V00:00:0000:00:0000:00:00
WB7NNF2026-09-01 18:46:5248.19771-117.38432325°35km/h32202m7.2m/s-43.1°C0%0hPa0V00:00:0000:00:0000:00:00
WB7NNF2026-09-01 18:46:2848.19728-117.38561356°49km/h32052m3.3m/s-43.8°C0%0hPa0V00:00:0000:00:0000:00:00
WB7NNF2026-09-01 18:46:0848.19703-117.3863987°37km/h31918m8.2m/s-44.6°C0%0hPa0V00:00:0000:00:0000:00:00
WB7NNF2026-09-01 18:45:4748.19636-117.38731180°29km/h31769m9.1m/s-44.6°C0%0hPa0V00:00:0000:00:0000:00:00
WB7NNF2026-09-01 18:45:2648.19636-117.3886242°38km/h31635m10.8m/s-44.3°C0%0hPa0V00:00:0000:00:0000:00:00
WB7NNF2026-09-01 18:45:0548.19630-117.38939145°4km/h31499m6.1m/s-43.5°C0%0hPa0V00:00:0000:00:0000:00:00
WB7NNF2026-09-01 18:44:4348.19611-117.39075359°44km/h31348m8.4m/s-43.5°C0%0hPa0V00:00:0000:00:0000:00:00
WB7NNF2026-09-01 18:44:2348.19572-117.39147128°22km/h31207m6.6m/s-43.1°C0%0hPa0V00:00:0000:00:0000:00:00
WB7NNF2026-09-01 18:44:0248.19585-117.39171291°35km/h31074m6.2m/s-42.6°C0%0hPa0V00:00:0000:00:0000:00:00
WB7NNF2026-09-01 18:43:3948.19676-117.39130295°20km/h30924m7.5m/s-42.7°C0%0hPa0V00:00:0000:00:0000:00:00
WB7NNF2026-09-01 18:43:1948.19781-117.39150126°57km/h30790m4.1m/s-42.6°C0%0hPa0V00:00:0000:00:0000:00:00
WB7NNF2026-09-01 18:42:5848.19830-117.39250313°18km/h30667m8.6m/s-42.6°C0%0hPa0V00:00:0000:00:0000:00:00
WB7NNF2026-09-01 18:42:3848.19822-117.39330100°40km/h30533m4.5m/s-42.5°C0%0hPa0V00:00:0000:00:0000:00:00
WB7NNF2026-09-01 18:42:1748.19802-117.39434319°22km/h30407m8.5m/s-42.9°C0%0hPa0V00:00:0000:00:0000:00:00
WB7NNF2026-09-01 18:41:5748.19749-117.3950338°9km/h30279m5.6m/s-43.3°C0%0hPa0V00:00:0000:00:0000:00:00
WB7NNF2026-09-01 18:41:3648.19730-117.39549103°22km/h30158m10.7m/s-44.1°C0%0hPa0V00:00:0000:00:0000:00:00
WB7NNF2026-09-01 18:41:1648.19735-117.39662201°9km/h30029m5.0m/s-44.2°C0%0hPa0V00:00:0000:00:0000:00:00
WB7NNF2026-09-01 18:40:5548.19751-117.39832103°60km/h29912m5.5m/s-44.5°C0%0hPa0V00:00:0000:00:0000:00:00
WB7NNF2026-09-01 18:40:3548.19719-117.39977360°31km/h29784m3.1m/s-45.5°C0%0hPa0V00:00:0000:00:0000:00:00
WB7NNF2026-09-01 18:40:1448.19658-117.4010674°24km/h29646m6.8m/s-46.8°C0%0hPa0V00:00:0000:00:0000:00:00
WB7NNF2026-09-01 18:39:5348.19598-117.4025331°38km/h29500m8.3m/s-47.2°C0%0hPa0V00:00:0000:00:0000:00:00
WB7NNF2026-09-01 18:39:3148.19532-117.4046341°33km/h29371m5.8m/s-46.9°C0%0hPa0V00:00:0000:00:0000:00:00
WB7NNF2026-09-01 18:39:0948.19443-117.4069355°35km/h29220m8.4m/s-45.9°C0%0hPa0V00:00:0000:00:0000:00:00
WB7NNF2026-09-01 18:38:4748.19329-117.40837350°26km/h29079m6.0m/s-46.5°C0%0hPa0V00:00:0000:00:0000:00:00
WB7NNF2026-09-01 18:38:2648.19248-117.40887292°33km/h28934m1.9m/s-46.8°C0%0hPa0V00:00:0000:00:0000:00:00
WB7NNF2026-09-01 18:38:0448.19159-117.40929359°20km/h28798m8.0m/s-47.3°C0%0hPa0V00:00:0000:00:0000:00:00
WB7NNF2026-09-01 18:37:4448.19051-117.4089612°13km/h28667m5.0m/s-47.4°C0%0hPa0V00:00:0000:00:0000:00:00
WB7NNF2026-09-01 18:37:2248.18970-117.4089563°31km/h28541m9.9m/s-47.6°C0%0hPa0V00:00:0000:00:0000:00:00
WB7NNF2026-09-01 18:36:4148.18782-117.4106151°16km/h28295m7.1m/s-48.3°C0%0hPa0V00:00:0000:00:0000:00:00
WB7NNF2026-09-01 18:36:2148.18675-117.40992361°40km/h28165m5.8m/s-48.2°C0%0hPa0V00:00:0000:00:0000:00:00
WB7NNF2026-09-01 18:36:0048.18571-117.40882299°37km/h28049m4.2m/s-48.1°C0%0hPa0V00:00:0000:00:0000:00:00
WB7NNF2026-09-01 18:35:4048.18495-117.40786290°18km/h27926m4.1m/s-48.5°C0%0hPa0V00:00:0000:00:0000:00:00
WB7NNF2026-09-01 18:35:1948.18439-117.40709321°13km/h27813m4.8m/s-48.7°C0%0hPa0V00:00:0000:00:0000:00:00
WB7NNF2026-09-01 18:34:5948.18414-117.4061429°18km/h27686m5.0m/s-48.8°C0%0hPa0V00:00:0000:00:0000:00:00
WB7NNF2026-09-01 18:34:3848.18409-117.40506247°44km/h27564m3.5m/s-48.9°C0%0hPa0V00:00:0000:00:0000:00:00
WB7NNF2026-09-01 18:34:1848.18420-117.40359227°15km/h27444m8.4m/s-48.3°C0%0hPa0V00:00:0000:00:0000:00:00
WB7NNF2026-09-01 18:33:5748.18494-117.40210308°20km/h27315m5.7m/s-48.1°C0%0hPa0V00:00:0000:00:0000:00:00
WB7NNF2026-09-01 18:33:3648.18578-117.40074135°18km/h27188m8.6m/s-47.9°C0%0hPa0V00:00:0000:00:0000:00:00
WB7NNF2026-09-01 18:33:1548.18636-117.39995200°9km/h27055m8.6m/s-47.6°C0%0hPa0V00:00:0000:00:0000:00:00
WB7NNF2026-09-01 18:32:5448.18614-117.3996915°24km/h26918m4.1m/s-48.1°C0%0hPa0V00:00:0000:00:0000:00:00
WB7NNF2026-09-01 18:32:3348.18577-117.3995534°38km/h26791m5.8m/s-48.6°C0%0hPa0V00:00:0000:00:0000:00:00
WB7NNF2026-09-01 18:32:1248.18551-117.39983116°20km/h26667m5.7m/s-49.0°C0%0hPa0V00:00:0000:00:0000:00:00
WB7NNF2026-09-01 18:31:5248.18517-117.40101350°11km/h26535m6.4m/s-48.7°C0%0hPa0V00:00:0000:00:0000:00:00
WB7NNF2026-09-01 18:31:3148.18463-117.40175316°26km/h26411m4.3m/s-48.5°C0%0hPa0V00:00:0000:00:0000:00:00
WB7NNF2026-09-01 18:31:1148.18376-117.40253355°20km/h26281m5.7m/s-48.3°C0%0hPa0V00:00:0000:00:0000:00:00
WB7NNF2026-09-01 18:30:4948.18284-117.4027310°9km/h26150m6.3m/s-48.5°C0%0hPa0V00:00:0000:00:0000:00:00
WB7NNF2026-09-01 18:30:2848.18178-117.40227356°16km/h26025m7.1m/s-48.6°C0%0hPa0V00:00:0000:00:0000:00:00
WB7NNF2026-09-01 18:30:0748.18154-117.40130196°22km/h25891m6.1m/s-48.6°C0%0hPa0V00:00:0000:00:0000:00:00
WB7NNF2026-09-01 18:29:4748.18185-117.40034271°26km/h25767m4.6m/s-47.9°C0%0hPa0V00:00:0000:00:0000:00:00
WB7NNF2026-09-01 18:29:2448.18301-117.39989153°49km/h25635m6.5m/s-47.8°C0%0hPa0V00:00:0000:00:0000:00:00
WB7NNF2026-09-01 18:29:0448.18465-117.39995171°38km/h25516m5.4m/s-47.7°C0%0hPa0V00:00:0000:00:0000:00:00
WB7NNF2026-09-01 18:28:4348.18608-117.40046143°44km/h25406m6.7m/s-48.3°C0%0hPa0V00:00:0000:00:0000:00:00
WB7NNF2026-09-01 18:28:2348.18709-117.40104146°31km/h25289m3.3m/s-49.2°C0%0hPa0V00:00:0000:00:0000:00:00
WB7NNF2026-09-01 18:28:0248.18767-117.40180140°18km/h25173m7.4m/s-49.4°C0%0hPa0V00:00:0000:00:0000:00:00
WB7NNF2026-09-01 18:27:4248.18857-117.40279148°24km/h25052m6.0m/s-49.6°C0%0hPa0V00:00:0000:00:0000:00:00
WB7NNF2026-09-01 18:27:2148.18897-117.404020km/h24939m6.9m/s-49.4°C0%0hPa0V00:00:0000:00:0000:00:00
WB7NNF2026-09-01 18:27:0148.18876-117.4046523°33km/h24821m2.1m/s-50.5°C0%0hPa0V00:00:0000:00:0000:00:00
WB7NNF2026-09-01 18:26:4048.18852-117.4050427°15km/h24708m7.1m/s-50.6°C0%0hPa0V00:00:0000:00:0000:00:00
WB7NNF2026-09-01 18:26:2048.18782-117.40475356°22km/h24584m3.8m/s-50.7°C0%0hPa0V00:00:0000:00:0000:00:00
WB7NNF2026-09-01 18:25:5948.18740-117.40491354°27km/h24468m7.1m/s-50.7°C0%0hPa0V00:00:0000:00:0000:00:00
WB7NNF2026-09-01 18:25:3948.18694-117.4056718°27km/h24349m6.8m/s-50.6°C0%0hPa0V00:00:0000:00:0000:00:00
WB7NNF2026-09-01 18:25:1848.18634-117.4069746°15km/h24237m6.1m/s-50.5°C0%0hPa0V00:00:0000:00:0000:00:00
WB7NNF2026-09-01 18:24:5848.18539-117.4082022°40km/h24114m1.6m/s-50.9°C0%0hPa0V00:00:0000:00:0000:00:00
WB7NNF2026-09-01 18:24:3748.18431-117.4095024km/h23995m3.7m/s-51.5°C0%0hPa0V00:00:0000:00:0000:00:00
WB7NNF2026-09-01 18:24:1648.18325-117.4103220°24km/h23880m6.0m/s-51.8°C0%0hPa0V00:00:0000:00:0000:00:00
WB7NNF2026-09-01 18:23:5648.18278-117.4106997°4km/h23759m5.7m/s-52.0°C0%0hPa0V00:00:0000:00:0000:00:00
WB7NNF2026-09-01 18:23:3448.18211-117.4115255°27km/h23636m5.3m/s-52.2°C0%0hPa0V00:00:0000:00:0000:00:00
WB7NNF2026-09-01 18:22:5348.18036-117.4138539°18km/h23412m5.6m/s-52.3°C0%0hPa0V00:00:0000:00:0000:00:00
WB7NNF2026-09-01 18:22:3248.17908-117.4145827km/h23296m6.9m/s-52.3°C0%0hPa0V00:00:0000:00:0000:00:00
WB7NNF2026-09-01 18:22:1148.17770-117.41532354°38km/h23187m4.5m/s-52.0°C0%0hPa0V00:00:0000:00:0000:00:00
WB7NNF2026-09-01 18:21:5148.17583-117.4158539°29km/h23073m6.9m/s-52.2°C0%0hPa0V00:00:0000:00:0000:00:00
WB7NNF2026-09-01 18:21:1048.17327-117.41614354°24km/h22848m7.0m/s-52.3°C0%0hPa0V00:00:0000:00:0000:00:00
WB7NNF2026-09-01 18:20:4948.17176-117.4160111°20km/h22739m5.5m/s-52.5°C0%0hPa0V00:00:0000:00:0000:00:00
WB7NNF2026-09-01 18:20:2948.16967-117.41530348°46km/h22625m7.0m/s-52.6°C0%0hPa0V00:00:0000:00:0000:00:00
WB7NNF2026-09-01 18:20:0848.16796-117.41392310°38km/h22510m6.4m/s-52.3°C0%0hPa0V00:00:0000:00:0000:00:00
WB7NNF2026-09-01 18:19:4848.16697-117.41228334°33km/h22392m5.5m/s-51.7°C0%0hPa0V00:00:0000:00:0000:00:00
WB7NNF2026-09-01 18:19:0748.16647-117.40975258°13km/h22170m4.4m/s-51.2°C0%0hPa0V00:00:0000:00:0000:00:00
WB7NNF2026-09-01 18:18:4648.16671-117.40960228°9km/h22060m7.4m/s-51.4°C0%0hPa0V00:00:0000:00:0000:00:00
WB7NNF2026-09-01 18:18:2648.16688-117.40892350°5km/h21947m6.8m/s-51.2°C0%0hPa0V00:00:0000:00:0000:00:00
WB7NNF2026-09-01 18:18:0548.16688-117.40833308°9km/h21839m4.5m/s-51.3°C0%0hPa0V00:00:0000:00:0000:00:00
WB7NNF2026-09-01 18:17:4448.16688-117.4085896°9km/h21736m5.5m/s-52.2°C0%0hPa0V00:00:0000:00:0000:00:00
WB7NNF2026-09-01 18:17:2448.16678-117.40871110°5km/h21626m4.2m/s-52.3°C0%0hPa0V00:00:0000:00:0000:00:00
WB7NNF2026-09-01 18:17:0348.16672-117.40897180°7km/h21523m6.0m/s-52.7°C0%0hPa0V00:00:0000:00:0000:00:00
WB7NNF2026-09-01 18:16:4348.16698-117.40933179°13km/h21408m6.8m/s-53.1°C0%0hPa0V00:00:0000:00:0000:00:00
WB7NNF2026-09-01 18:16:2348.16753-117.40986161°20km/h21299m3.8m/s-53.0°C0%0hPa0V00:00:0000:00:0000:00:00
WB7NNF2026-09-01 18:16:0248.16825-117.41105102°27km/h21188m5.9m/s-52.6°C0%0hPa0V00:00:0000:00:0000:00:00
WB7NNF2026-09-01 18:15:4148.16901-117.41285120°29km/h21076m4.9m/s-51.7°C0%0hPa0V00:00:0000:00:0000:00:00
WB7NNF2026-09-01 18:15:2148.16952-117.4146898°24km/h20965m7.0m/s-51.8°C0%0hPa0V00:00:0000:00:0000:00:00
WB7NNF2026-09-01 18:15:0048.16984-117.4170188°27km/h20857m4.9m/s-52.4°C0%0hPa0V00:00:0000:00:0000:00:00
WB7NNF2026-09-01 18:14:4048.16967-117.4198098°40km/h20748m4.1m/s-52.9°C0%0hPa0V00:00:0000:00:0000:00:00
WB7NNF2026-09-01 18:14:1948.16887-117.4225549°38km/h20643m6.3m/s-53.2°C0%0hPa0V00:00:0000:00:0000:00:00
WB7NNF2026-09-01 18:13:5948.16758-117.4249730°27km/h20539m5.9m/s-52.9°C0%0hPa0V00:00:0000:00:0000:00:00
WB7NNF2026-09-01 18:13:3848.16642-117.4267750°16km/h20438m5.0m/s-52.4°C0%0hPa0V00:00:0000:00:0000:00:00
WB7NNF2026-09-01 18:13:1848.16545-117.4282032°18km/h20333m5.3m/s-52.5°C0%0hPa0V00:00:0000:00:0000:00:00
WB7NNF2026-09-01 18:12:5748.16418-117.4296032°26km/h20224m6.7m/s-52.9°C0%0hPa0V00:00:0000:00:0000:00:00
WB7NNF2026-09-01 18:12:3648.16279-117.4308119°33km/h20123m5.5m/s-52.9°C0%0hPa0V00:00:0000:00:0000:00:00
WB7NNF2026-09-01 18:12:1648.16109-117.4317931°35km/h20019m6.1m/s-53.1°C0%0hPa0V00:00:0000:00:0000:00:00
WB7NNF2026-09-01 18:11:5548.15967-117.4327733°26km/h19918m4.7m/s-53.1°C0%0hPa0V00:00:0000:00:0000:00:00
WB7NNF2026-09-01 18:11:3548.15810-117.4342344°37km/h19813m4.9m/s-53.6°C0%0hPa0V00:00:0000:00:0000:00:00
WB7NNF2026-09-01 18:11:1448.15638-117.4360638°33km/h19707m3.2m/s-54.6°C0%0hPa0V00:00:0000:00:0000:00:00
WB7NNF2026-09-01 18:10:5448.15422-117.43729354°49km/h19596m5.2m/s-54.8°C0%0hPa0V00:00:0000:00:0000:00:00
WB7NNF2026-09-01 18:10:3348.15260-117.43786349°31km/h19490m5.2m/s-53.8°C0%0hPa0V00:00:0000:00:0000:00:00
WB7NNF2026-09-01 18:10:1348.15128-117.4380016°29km/h19376m4.3m/s-53.5°C0%0hPa0V00:00:0000:00:0000:00:00
WB7NNF2026-09-01 18:09:5248.15037-117.43784339°11km/h19267m3.4m/s-52.9°C0%0hPa0V00:00:0000:00:0000:00:00
WB7NNF2026-09-01 18:09:3248.14962-117.4380445°18km/h19157m6.5m/s-53.0°C0%0hPa0V00:00:0000:00:0000:00:00
WB7NNF2026-09-01 18:09:1148.14884-117.4394155°31km/h19048m5.8m/s-52.7°C0%0hPa0V00:00:0000:00:0000:00:00
WB7NNF2026-09-01 18:08:5148.14766-117.4415634°53km/h18939m5.0m/s-53.8°C0%0hPa0V00:00:0000:00:0000:00:00
WB7NNF2026-09-01 18:08:3048.14588-117.4435446°40km/h18835m6.8m/s-53.6°C0%0hPa0V00:00:0000:00:0000:00:00
WB7NNF2026-09-01 18:08:0848.14351-117.4451612°57km/h18721m4.1m/s-53.4°C0%0hPa0V00:00:0000:00:0000:00:00
WB7NNF2026-09-01 18:07:4548.14136-117.4462221°35km/h18597m6.8m/s-53.1°C0%0hPa0V00:00:0000:00:0000:00:00
WB7NNF2026-09-01 18:07:2548.13997-117.44664359°20km/h18488m3.8m/s-52.8°C0%0hPa0V00:00:0000:00:0000:00:00
WB7NNF2026-09-01 18:07:0448.13894-117.4473925°29km/h18384m5.8m/s-52.2°C0%0hPa0V00:00:0000:00:0000:00:00
WB7NNF2026-09-01 18:06:4448.13809-117.4485015°31km/h18274m5.3m/s-52.0°C0%0hPa0V00:00:0000:00:0000:00:00
WB7NNF2026-09-01 18:06:2348.13701-117.4502664°42km/h18163m3.3m/s-52.1°C0%0hPa0V00:00:0000:00:0000:00:00
WB7NNF2026-09-01 18:06:0348.13538-117.4526837°38km/h18059m4.2m/s-52.2°C0%0hPa0V00:00:0000:00:0000:00:00
WB7NNF2026-09-01 18:05:3948.13298-117.4556341°40km/h17940m5.1m/s-52.4°C0%0hPa0V00:00:0000:00:0000:00:00
WB7NNF2026-09-01 18:05:1848.13094-117.4578757°46km/h17827m3.7m/s-52.4°C0%0hPa0V00:00:0000:00:0000:00:00
WB7NNF2026-09-01 18:04:5448.12884-117.4603538°47km/h17708m5.8m/s-52.4°C0%0hPa0V00:00:0000:00:0000:00:00
WB7NNF2026-09-01 18:04:3348.12636-117.4626726°57km/h17601m5.3m/s-52.5°C0%0hPa0V00:00:0000:00:0000:00:00
WB7NNF2026-09-01 18:04:1348.12392-117.4647124°69km/h17500m4.7m/s-52.3°C0%0hPa0V00:00:0000:00:0000:00:00
WB7NNF2026-09-01 18:03:5248.12133-117.4663834°38km/h17392m5.2m/s-51.9°C0%0hPa0V00:00:0000:00:0000:00:00
WB7NNF2026-09-01 18:03:3148.11903-117.4679226°40km/h17287m4.0m/s-51.4°C0%0hPa0V00:00:0000:00:0000:00:00
WB7NNF2026-09-01 18:03:0948.11699-117.4695118°49km/h17193m3.9m/s-51.2°C0%0hPa0V00:00:0000:00:0000:00:00
WB7NNF2026-09-01 18:02:4948.11527-117.4713042°42km/h17099m5.2m/s-51.4°C0%0hPa0V00:00:0000:00:0000:00:00
WB7NNF2026-09-01 18:02:2848.11337-117.4730830°49km/h17008m5.3m/s-53.2°C0%0hPa0V00:00:0000:00:0000:00:00
WB7NNF2026-09-01 18:02:0748.11123-117.4746419°47km/h16913m6.2m/s-53.1°C0%0hPa0V00:00:0000:00:0000:00:00
WB7NNF2026-09-01 18:01:4748.10945-117.4763534°60km/h16805m7.7m/s-54.0°C0%0hPa0V00:00:0000:00:0000:00:00
WB7NNF2026-09-01 18:01:2648.10772-117.4788938°51km/h16661m7.6m/s-53.8°C0%0hPa0V00:00:0000:00:0000:00:00
WB7NNF2026-09-01 18:01:0648.10541-117.4816932°49km/h16539m5.6m/s-53.7°C0%0hPa0V00:00:0000:00:0000:00:00
WB7NNF2026-09-01 18:00:0448.09711-117.4899342°60km/h16195m4.7m/s-54.1°C0%0hPa0V00:00:0000:00:0000:00:00
WB7NNF2026-09-01 17:59:4248.09473-117.4924225°62km/h16100m4.7m/s-53.9°C0%0hPa0V00:00:0000:00:0000:00:00
WB7NNF2026-09-01 17:59:2148.09209-117.4947229°49km/h16004m5.7m/s-54.5°C0%0hPa0V00:00:0000:00:0000:00:00
WB7NNF2026-09-01 17:59:0148.08963-117.4965724°62km/h15901m4.1m/s-54.1°C0%0hPa0V00:00:0000:00:0000:00:00
WB7NNF2026-09-01 17:58:4048.08701-117.4983431°60km/h15804m5.4m/s-54.3°C0%0hPa0V00:00:0000:00:0000:00:00
WB7NNF2026-09-01 17:58:1848.08435-117.5007826°62km/h15704m5.6m/s-54.1°C0%0hPa0V00:00:0000:00:0000:00:00
WB7NNF2026-09-01 17:57:5448.08105-117.5041031°64km/h15593m3.6m/s-54.7°C0%0hPa0V00:00:0000:00:0000:00:00
WB7NNF2026-09-01 17:57:2748.07716-117.5066426°58km/h15474m3.7m/s-54.6°C0%0hPa0V00:00:0000:00:0000:00:00
WB7NNF2026-09-01 17:57:0748.07449-117.5076018°58km/h15376m4.1m/s-54.4°C0%0hPa0V00:00:0000:00:0000:00:00
WB7NNF2026-09-01 17:56:4648.07220-117.5088518°42km/h15283m4.4m/s-54.4°C0%0hPa0V00:00:0000:00:0000:00:00
WB7NNF2026-09-01 17:56:2648.07003-117.5103130°42km/h15186m5.4m/s-54.4°C0%0hPa0V00:00:0000:00:0000:00:00
WB7NNF2026-09-01 17:56:0548.06814-117.5117632°46km/h15090m4.4m/s-54.2°C0%0hPa0V00:00:0000:00:0000:00:00
WB7NNF2026-09-01 17:55:4548.06609-117.5133433°49km/h14985m4.4m/s-53.6°C0%0hPa0V00:00:0000:00:0000:00:00
WB7NNF2026-09-01 17:55:2448.06397-117.5148218°60km/h14886m4.6m/s-53.4°C0%0hPa0V00:00:0000:00:0000:00:00
WB7NNF2026-09-01 17:55:0448.06153-117.5163134°47km/h14785m5.8m/s-53.1°C0%0hPa0V00:00:0000:00:0000:00:00
WB7NNF2026-09-01 17:54:4348.05923-117.5180617°51km/h14690m4.3m/s-52.5°C0%0hPa0V00:00:0000:00:0000:00:00
WB7NNF2026-09-01 17:54:2348.05649-117.5200122°55km/h14589m6.0m/s-52.3°C0%0hPa0V00:00:0000:00:0000:00:00
WB7NNF2026-09-01 17:53:4248.05035-117.5235471km/h14394m3.6m/s-52.0°C0%0hPa0V00:00:0000:00:0000:00:00
WB7NNF2026-09-01 17:53:2148.04686-117.5248222°68km/h14301m3.8m/s-52.0°C0%0hPa0V00:00:0000:00:0000:00:00
WB7NNF2026-09-01 17:53:0148.04354-117.5263427°60km/h14205m3.5m/s-52.1°C0%0hPa0V00:00:0000:00:0000:00:00
WB7NNF2026-09-01 17:52:4048.04053-117.5280632°60km/h14110m3.2m/s-52.0°C0%0hPa0V00:00:0000:00:0000:00:00
WB7NNF2026-09-01 17:52:1948.03734-117.5295913°69km/h14024m4.2m/s-52.3°C0%0hPa0V00:00:0000:00:0000:00:00
WB7NNF2026-09-01 17:51:5948.03393-117.5309322°62km/h13929m4.6m/s-52.7°C0%0hPa0V00:00:0000:00:0000:00:00
WB7NNF2026-09-01 17:51:3848.03090-117.5321018°69km/h13842m3.9m/s-53.0°C0%0hPa0V00:00:0000:00:0000:00:00
WB7NNF2026-09-01 17:51:1848.02749-117.5333619°68km/h13753m5.1m/s-53.8°C0%0hPa0V00:00:0000:00:0000:00:00
WB7NNF2026-09-01 17:50:5748.02432-117.5350123°60km/h13665m4.8m/s-54.4°C0%0hPa0V00:00:0000:00:0000:00:00
WB7NNF2026-09-01 17:50:3748.02082-117.5370117°78km/h13568m4.1m/s-54.6°C0%0hPa0V00:00:0000:00:0000:00:00
WB7NNF2026-09-01 17:50:1648.01746-117.5386114°60km/h13474m5.4m/s-55.0°C0%0hPa0V00:00:0000:00:0000:00:00
WB7NNF2026-09-01 17:49:5648.01392-117.5401817°86km/h13376m4.9m/s-55.5°C0%0hPa0V00:00:0000:00:0000:00:00
WB7NNF2026-09-01 17:49:3548.01041-117.5416617°66km/h13284m2.8m/s-55.3°C0%0hPa0V00:00:0000:00:0000:00:00
WB7NNF2026-09-01 17:49:1548.00697-117.5427910°58km/h13184m5.7m/s-55.6°C0%0hPa0V00:00:0000:00:0000:00:00
WB7NNF2026-09-01 17:48:5448.00384-117.5435612°71km/h13090m2.9m/s-55.5°C0%0hPa0V00:00:0000:00:0000:00:00
WB7NNF2026-09-01 17:48:3448.00036-117.5445868km/h12992m4.9m/s-55.4°C0%0hPa0V00:00:0000:00:0000:00:00
WB7NNF2026-09-01 17:48:1347.99690-117.5452612°69km/h12899m4.9m/s-55.7°C0%0hPa0V00:00:0000:00:0000:00:00
WB7NNF2026-09-01 17:47:5347.99357-117.5456562km/h12799m3.8m/s-56.7°C0%0hPa0V00:00:0000:00:0000:00:00
WB7NNF2026-09-01 17:47:3247.99026-117.5464764km/h12703m4.9m/s-57.3°C0%0hPa0V00:00:0000:00:0000:00:00
WB7NNF2026-09-01 17:47:1147.98712-117.5473015°60km/h12616m5.2m/s-57.8°C0%0hPa0V00:00:0000:00:0000:00:00
WB7NNF2026-09-01 17:46:5147.98371-117.5480713°69km/h12521m3.4m/s-58.0°C0%0hPa0V00:00:0000:00:0000:00:00
WB7NNF2026-09-01 17:46:3047.98031-117.5483864km/h12434m5.3m/s-58.4°C0%0hPa0V00:00:0000:00:0000:00:00
WB7NNF2026-09-01 17:46:1047.97643-117.54893358°68km/h12331m6.0m/s-58.0°C0%0hPa0V00:00:0000:00:0000:00:00
WB7NNF2026-09-01 17:45:4947.97279-117.54898360°78km/h12229m5.2m/s-57.4°C0%0hPa0V00:00:0000:00:0000:00:00
WB7NNF2026-09-01 17:45:2947.96883-117.54880358°80km/h12132m5.8m/s-57.0°C0%0hPa0V00:00:0000:00:0000:00:00
WB7NNF2026-09-01 17:45:0847.96506-117.5486669km/h12028m5.0m/s-57.3°C0%0hPa0V00:00:0000:00:0000:00:00
WB7NNF2026-09-01 17:44:4647.96125-117.5492913°82km/h11929m3.7m/s-57.2°C0%0hPa0V00:00:0000:00:0000:00:00
WB7NNF2026-09-01 17:44:2547.95706-117.5500611°78km/h11830m4.5m/s-56.8°C0%0hPa0V00:00:0000:00:0000:00:00
WB7NNF2026-09-01 17:44:0547.95301-117.55080360°75km/h11735m4.4m/s-56.1°C0%0hPa0V00:00:0000:00:0000:00:00
WB7NNF2026-09-01 17:43:4447.94925-117.55129356°95km/h11646m4.9m/s-55.9°C0%0hPa0V00:00:0000:00:0000:00:00
WB7NNF2026-09-01 17:43:2447.94480-117.5518097km/h11538m3.9m/s-56.1°C0%0hPa0V00:00:0000:00:0000:00:00
WB7NNF2026-09-01 17:43:0347.94057-117.5520857km/h11445m5.9m/s-55.6°C0%0hPa0V00:00:0000:00:0000:00:00
WB7NNF2026-09-01 17:42:4347.93666-117.5523713°69km/h11336m5.0m/s-54.8°C0%0hPa0V00:00:0000:00:0000:00:00
WB7NNF2026-09-01 17:42:0047.92852-117.55134359°77km/h11137m4.2m/s-53.8°C0%0hPa0V00:00:0000:00:0000:00:00
WB7NNF2026-09-01 17:41:3947.92484-117.55093355°75km/h11046m3.6m/s-53.2°C0%0hPa0V00:00:0000:00:0000:00:00
WB7NNF2026-09-01 17:41:1947.92112-117.55063361°80km/h10953m2.5m/s-52.5°C0%0hPa0V00:00:0000:00:0000:00:00
WB7NNF2026-09-01 17:40:5847.91756-117.5504662km/h10857m4.1m/s-51.7°C0%0hPa0V00:00:0000:00:0000:00:00
WB7NNF2026-09-01 17:40:3847.91382-117.5507326°62km/h10749m5.0m/s-51.0°C0%0hPa0V00:00:0000:00:0000:00:00
WB7NNF2026-09-01 17:40:1747.90995-117.5517366km/h10634m4.8m/s-50.1°C0%0hPa0V00:00:0000:00:0000:00:00
WB7NNF2026-09-01 17:39:5747.90578-117.5524477km/h10541m4.1m/s-49.3°C0%0hPa0V00:00:0000:00:0000:00:00
WB7NNF2026-09-01 17:39:3547.90170-117.55329358°75km/h10452m4.0m/s-48.6°C0%0hPa0V00:00:0000:00:0000:00:00
WB7NNF2026-09-01 17:39:1547.89781-117.5540486km/h10365m3.6m/s-47.9°C0%0hPa0V00:00:0000:00:0000:00:00
WB7NNF2026-09-01 17:38:5547.89388-117.5551473km/h10267m4.8m/s-47.1°C0%0hPa0V00:00:0000:00:0000:00:00
WB7NNF2026-09-01 17:38:3447.89016-117.5562620°75km/h10182m5.0m/s-46.4°C0%0hPa0V00:00:0000:00:0000:00:00
WB7NNF2026-09-01 17:38:1447.88632-117.5576216°75km/h10070m6.0m/s-45.5°C0%0hPa0V00:00:0000:00:0000:00:00
WB7NNF2026-09-01 17:37:5347.88272-117.5590924°88km/h9960m4.4m/s-44.6°C0%0hPa0V00:00:0000:00:0000:00:00
WB7NNF2026-09-01 17:37:3347.87892-117.5608720°73km/h9865m5.9m/s-43.7°C0%0hPa0V00:00:0000:00:0000:00:00
WB7NNF2026-09-01 17:37:1247.87526-117.5627720°88km/h9750m3.9m/s-42.8°C0%0hPa0V00:00:0000:00:0000:00:00
WB7NNF2026-09-01 17:36:5247.87154-117.5645219°86km/h9648m4.0m/s-42.0°C0%0hPa0V00:00:0000:00:0000:00:00
WB7NNF2026-09-01 17:36:3147.86819-117.5662214°68km/h9560m4.0m/s-41.3°C0%0hPa0V00:00:0000:00:0000:00:00
WB7NNF2026-09-01 17:36:1147.86452-117.5678830°71km/h9472m3.8m/s-40.7°C0%0hPa0V00:00:0000:00:0000:00:00
WB7NNF2026-09-01 17:35:5047.86108-117.5694919°78km/h9381m4.8m/s-40.0°C0%0hPa0V00:00:0000:00:0000:00:00
WB7NNF2026-09-01 17:35:3047.85774-117.5713514°71km/h9267m5.6m/s-39.1°C0%0hPa0V00:00:0000:00:0000:00:00
WB7NNF2026-09-01 17:35:0947.85435-117.5732525°78km/h9178m4.0m/s-38.6°C0%0hPa0V00:00:0000:00:0000:00:00
WB7NNF2026-09-01 17:34:4947.85062-117.5753729°75km/h9086m3.8m/s-37.8°C0%0hPa0V00:00:0000:00:0000:00:00
WB7NNF2026-09-01 17:34:2847.84680-117.5774219°84km/h8996m5.0m/s-37.2°C0%0hPa0V00:00:0000:00:0000:00:00
WB7NNF2026-09-01 17:34:0647.84285-117.5790721°77km/h8898m3.4m/s-36.4°C0%0hPa0V00:00:0000:00:0000:00:00
WB7NNF2026-09-01 17:33:4147.83814-117.5805118°86km/h8780m4.0m/s-35.8°C0%0hPa0V00:00:0000:00:0000:00:00
WB7NNF2026-09-01 17:33:2147.83394-117.5817312°89km/h8686m5.1m/s-35.2°C0%0hPa0V00:00:0000:00:0000:00:00
WB7NNF2026-09-01 17:33:0047.82997-117.5830117°77km/h8594m4.9m/s-34.3°C0%0hPa0V00:00:0000:00:0000:00:00
WB7NNF2026-09-01 17:32:4047.82580-117.5845122°82km/h8498m4.2m/s-33.7°C0%0hPa0V00:00:0000:00:0000:00:00
WB7NNF2026-09-01 17:32:1947.82190-117.5857914°84km/h8394m5.4m/s-32.9°C0%0hPa0V00:00:0000:00:0000:00:00
WB7NNF2026-09-01 17:31:5947.81780-117.5871617°91km/h8299m5.0m/s-32.3°C0%0hPa0V00:00:0000:00:0000:00:00
WB7NNF2026-09-01 17:31:3847.81382-117.5884911°75km/h8209m4.4m/s-31.5°C0%0hPa0V00:00:0000:00:0000:00:00
WB7NNF2026-09-01 17:31:1647.80984-117.5898510°71km/h8113m4.1m/s-30.7°C0%0hPa0V00:00:0000:00:0000:00:00
WB7NNF2026-09-01 17:30:5547.80575-117.5917227°75km/h8002m5.4m/s-29.7°C0%0hPa0V00:00:0000:00:0000:00:00
WB7NNF2026-09-01 17:30:3547.80158-117.5938312°73km/h7904m4.9m/s-29.4°C0%0hPa0V00:00:0000:00:0000:00:00
WB7NNF2026-09-01 17:30:1347.79773-117.5959914°78km/h7815m4.7m/s-28.7°C0%0hPa0V00:00:0000:00:0000:00:00
WB7NNF2026-09-01 17:29:5247.79397-117.5982231°78km/h7726m4.0m/s-28.2°C0%0hPa0V00:00:0000:00:0000:00:00
WB7NNF2026-09-01 17:29:3147.79040-117.6004328°64km/h7633m3.2m/s-27.7°C0%0hPa0V00:00:0000:00:0000:00:00
WB7NNF2026-09-01 17:29:1147.78711-117.6026820°57km/h7546m2.7m/s-27.1°C0%0hPa0V00:00:0000:00:0000:00:00
WB7NNF2026-09-01 17:28:5047.78411-117.6047729°71km/h7458m4.6m/s-26.6°C0%0hPa0V00:00:0000:00:0000:00:00
WB7NNF2026-09-01 17:27:5847.77688-117.6088031°58km/h7221m3.9m/s-24.9°C0%0hPa0V00:00:0000:00:0000:00:00
WB7NNF2026-09-01 17:27:3647.77404-117.6099522°60km/h7137m4.0m/s-24.8°C0%0hPa0V00:00:0000:00:0000:00:00
WB7NNF2026-09-01 17:27:1547.77127-117.6109912°60km/h7053m4.5m/s-24.1°C0%0hPa0V00:00:0000:00:0000:00:00
WB7NNF2026-09-01 17:26:3447.76615-117.6131614°47km/h6884m4.8m/s-23.1°C0%0hPa0V00:00:0000:00:0000:00:00
WB7NNF2026-09-01 17:24:5547.75516-117.6178657km/h6391m3.5m/s-19.3°C0%0hPa0V00:00:0000:00:0000:00:00
WB7NNF2026-09-01 17:24:0747.74987-117.6199636°31km/h6132m4.9m/s-17.3°C0%0hPa0V00:00:0000:00:0000:00:00
WB7NNF2026-09-01 17:23:3947.74742-117.6219527°49km/h6012m2.9m/s-16.4°C0%0hPa0V00:00:0000:00:0000:00:00
WB7NNF2026-09-01 17:23:1947.74558-117.6234624°31km/h5906m4.1m/s-15.8°C0%0hPa0V00:00:0000:00:0000:00:00


GPX KML Map

© wettersonde.net (DO2JMG) - 2026  -  -